createdAt,value
2022-11-27T00:01:50.284Z,1034.3
2022-11-27T00:07:47.693Z,1034.3
2022-11-27T00:13:12.753Z,1034.3
2022-11-27T00:18:34.256Z,1034.2
2022-11-27T00:24:14.213Z,1034.1
2022-11-27T00:29:31.419Z,1034.1
2022-11-27T00:35:03.094Z,1034
2022-11-27T00:40:42.377Z,1033.9
2022-11-27T00:46:07.667Z,1033.9
2022-11-27T00:51:40.365Z,1033.6
2022-11-27T00:57:29.391Z,1033.7
2022-11-27T01:02:58.515Z,1033.8
2022-11-27T01:08:19.598Z,1033.7
2022-11-27T01:13:45.461Z,1033.6
2022-11-27T01:19:21.615Z,1033.6
2022-11-27T01:24:51.778Z,1033.6
2022-11-27T01:30:29.203Z,1033.6
2022-11-27T01:35:49.349Z,1033.5
2022-11-27T01:41:49.056Z,1033.4
2022-11-27T01:47:03.472Z,1033.5
2022-11-27T01:52:34.337Z,1033.5
2022-11-27T01:58:01.513Z,1033.4
2022-11-27T02:03:56.213Z,1033.4
2022-11-27T02:09:05.273Z,1033.3
2022-11-27T02:14:45.146Z,1033.4
2022-11-27T02:20:10.006Z,1033.2
2022-11-27T02:25:40.504Z,1033.1
2022-11-27T02:31:19.099Z,1033.1
2022-11-27T02:36:55.525Z,1033
2022-11-27T02:42:37.572Z,1032.9
2022-11-27T02:47:41.907Z,1033
2022-11-27T02:53:21.710Z,1032.8
2022-11-27T02:58:48.378Z,1032.6
2022-11-27T03:04:20.111Z,1032.6
2022-11-27T03:09:58.007Z,1032.6
2022-11-27T03:15:44.629Z,1032.5
2022-11-27T03:21:13.829Z,1032.6
2022-11-27T03:26:44.397Z,1032.6
2022-11-27T03:31:58.357Z,1032.5
2022-11-27T03:37:33.809Z,1032.7
2022-11-27T03:43:27.412Z,1032.7
2022-11-27T03:48:54.179Z,1032.6
2022-11-27T03:54:16.627Z,1032.5
2022-11-27T03:59:48.776Z,1032.6
2022-11-27T04:05:29.888Z,1032.6
2022-11-27T04:10:39.991Z,1032.6
2022-11-27T04:16:26.551Z,1032.6
2022-11-27T04:22:04.460Z,1032.5
2022-11-27T04:27:19.286Z,1032.6
2022-11-27T04:33:08.346Z,1032.6
2022-11-27T04:38:36.242Z,1032.6
2022-11-27T04:44:04.881Z,1032.6
2022-11-27T04:49:47.774Z,1032.5
2022-11-27T04:55:00.171Z,1032.6
2022-11-27T05:00:35.380Z,1032.5
2022-11-27T05:06:18.841Z,1032.5
2022-11-27T05:11:48.645Z,1032.5
2022-11-27T05:17:24.607Z,1032.5
2022-11-27T05:22:39.009Z,1032.4
2022-11-27T05:28:29.724Z,1032.3
2022-11-27T05:33:39.432Z,1032.3
2022-11-27T05:39:26.079Z,1032.4
2022-11-27T05:44:50.782Z,1032.5
2022-11-27T05:50:31.982Z,1032.5
2022-11-27T05:55:51.167Z,1032.5
2022-11-27T06:01:20.884Z,1032.6
2022-11-27T06:07:07.314Z,1032.5
2022-11-27T06:12:34.836Z,1032.4
2022-11-27T06:18:06.754Z,1032.3
2022-11-27T06:23:21.601Z,1032.3
2022-11-27T06:29:06.440Z,1032.3
2022-11-27T06:34:41.449Z,1032.3
2022-11-27T06:40:19.186Z,1032.3
2022-11-27T06:45:44.831Z,1032.3
2022-11-27T06:51:27.808Z,1032.4
2022-11-27T06:56:49.787Z,1032.4
2022-11-27T07:02:18.212Z,1032.3
2022-11-27T07:07:37.556Z,1032.4
2022-11-27T07:13:11.513Z,1032.4
2022-11-27T07:18:42.931Z,1032.3
2022-11-27T07:24:38.774Z,1032.2
2022-11-27T07:30:05.003Z,1032.2
2022-11-27T07:35:13.829Z,1032.1
2022-11-27T07:40:48.107Z,1032.1
2022-11-27T07:46:18.537Z,1032.2
2022-11-27T07:51:51.265Z,1032.1
2022-11-27T07:57:21.325Z,1032.2
2022-11-27T08:03:17.913Z,1032.1
2022-11-27T08:08:28.162Z,1032
2022-11-27T08:13:56.113Z,1031.9
2022-11-27T08:19:43.557Z,1031.9
2022-11-27T08:25:15.421Z,1031.7
2022-11-27T08:30:57.277Z,1031.7
2022-11-27T08:36:17.550Z,1031.6
2022-11-27T08:41:34.969Z,1031.6
2022-11-27T08:47:17.719Z,1031.6
2022-11-27T08:52:41.938Z,1031.7
2022-11-27T08:58:30.173Z,1031.5
2022-11-27T09:03:45.831Z,1031.5
2022-11-27T09:09:39.019Z,1031.4
2022-11-27T09:15:01.906Z,1031.4
2022-11-27T09:20:20.645Z,1031.3
2022-11-27T09:26:02.222Z,1031.2
2022-11-27T09:31:43.356Z,1031.2
2022-11-27T09:37:23.712Z,1031.3
2022-11-27T09:42:34.375Z,1031.2
2022-11-27T09:53:39.043Z,1031.1
2022-11-27T09:59:19.027Z,1031.2
2022-11-27T10:10:22.082Z,1030.9
2022-11-27T10:16:02.323Z,1030.8
2022-11-27T10:21:12.437Z,1030.8
2022-11-27T10:26:49.518Z,1030.6
2022-11-27T10:32:47.173Z,1030.5
2022-11-27T10:37:50.722Z,1030.4
2022-11-27T10:43:40.430Z,1030.3
2022-11-27T10:49:08.888Z,1030.3
2022-11-27T10:54:42.854Z,1030.2
2022-11-27T11:00:10.215Z,1030.1
2022-11-27T11:06:19.043Z,1030
2022-11-27T11:11:08.852Z,1029.7
2022-11-27T11:16:52.351Z,1029.7
2022-11-27T11:22:19.016Z,1029.5
2022-11-27T11:27:53.905Z,1029.3
2022-11-27T11:33:30.188Z,1029.2
2022-11-27T11:38:50.715Z,1029.1
2022-11-27T11:44:24.013Z,1029.1
2022-11-27T11:49:57.307Z,1028.9
2022-11-27T11:55:40.018Z,1028.8
2022-11-27T12:01:25.778Z,1028.7
2022-11-27T12:06:51.991Z,1028.7
2022-11-27T12:12:11.139Z,1028.6
2022-11-27T12:17:42.253Z,1028.6
2022-11-27T12:23:34.066Z,1028.5
2022-11-27T12:28:59.088Z,1028.3
2022-11-27T12:34:31.947Z,1028.2
2022-11-27T12:39:44.704Z,1028.1
2022-11-27T12:45:24.553Z,1028
2022-11-27T12:51:07.365Z,1027.8
2022-11-27T12:56:16.732Z,1027.8
2022-11-27T13:01:56.413Z,1027.7
2022-11-27T13:07:35.249Z,1027.6
2022-11-27T13:13:14.922Z,1027.5
2022-11-27T13:18:32.459Z,1027.4
2022-11-27T13:24:20.690Z,1027.3
2022-11-27T13:29:32.079Z,1027.2
2022-11-27T13:35:11.101Z,1027.1
2022-11-27T13:40:41.105Z,1027
2022-11-27T13:46:20.201Z,1026.9
2022-11-27T13:51:41.933Z,1026.9
2022-11-27T13:57:18.236Z,1026.8
2022-11-27T14:03:05.537Z,1026.8
2022-11-27T14:08:39.514Z,1026.6
2022-11-27T14:13:52.760Z,1026.6
2022-11-27T14:19:43.377Z,1026.5
2022-11-27T14:25:04.820Z,1026.4
2022-11-27T14:30:23.299Z,1026.2
2022-11-27T14:36:16.525Z,1026.1
2022-11-27T14:41:38.448Z,1026.1
2022-11-27T14:47:20.322Z,1026
2022-11-27T14:52:43.075Z,1026.2
2022-11-27T14:58:29.123Z,1026.2
2022-11-27T15:03:51.343Z,1026.3
2022-11-27T15:09:31.127Z,1026.1
2022-11-27T15:14:47.138Z,1026.1
2022-11-27T15:20:33.004Z,1026.1
2022-11-27T15:26:00.181Z,1026
2022-11-27T15:31:23.759Z,1026
2022-11-27T15:37:05.160Z,1025.9
2022-11-27T15:42:35.367Z,1025.9
2022-11-27T15:47:59.893Z,1025.8
2022-11-27T15:53:36.814Z,1025.7
2022-11-27T15:58:56.748Z,1025.9
2022-11-27T16:04:37.778Z,1025.8
2022-11-27T16:09:59.226Z,1025.8
2022-11-27T16:15:47.388Z,1025.8
2022-11-27T16:21:19.339Z,1025.8
2022-11-27T16:26:54.160Z,1025.8
2022-11-27T16:32:17.939Z,1025.8
2022-11-27T16:37:40.607Z,1025.6
2022-11-27T16:43:23.321Z,1025.5
2022-11-27T16:48:53.931Z,1025.4
2022-11-27T16:54:16.167Z,1025.2
2022-11-27T16:59:44.068Z,1025.1
2022-11-27T17:05:18.395Z,1025.1
2022-11-27T17:10:58.947Z,1025.1
2022-11-27T17:16:31.009Z,1024.9
2022-11-27T17:22:09.863Z,1024.9
2022-11-27T17:27:38.159Z,1024.7
2022-11-27T17:33:12.059Z,1024.7
2022-11-27T17:38:34.106Z,1024.6
2022-11-27T17:44:00.649Z,1024.5
2022-11-27T17:49:52.724Z,1024.4
2022-11-27T17:55:21.108Z,1024.3
2022-11-27T18:00:40.148Z,1024.4
2022-11-27T18:06:27.676Z,1024.2
2022-11-27T18:11:57.392Z,1024.2
2022-11-27T18:17:38.432Z,1024.1
2022-11-27T18:23:01.469Z,1024.1
2022-11-27T18:28:35.534Z,1024
2022-11-27T18:34:01.443Z,1023.9
2022-11-27T18:39:19.588Z,1023.9
2022-11-27T18:45:31.524Z,1023.9
2022-11-27T18:50:34.820Z,1023.9
2022-11-27T18:55:57.197Z,1023.9
2022-11-27T19:01:45.904Z,1023.8
2022-11-27T19:07:02.701Z,1023.7
2022-11-27T19:12:43.769Z,1023.7
2022-11-27T19:18:07.056Z,1023.8
2022-11-27T19:23:49.216Z,1023.7
2022-11-27T19:29:24.442Z,1023.5
2022-11-27T19:34:52.960Z,1023.3
2022-11-27T19:40:19.287Z,1023.3
2022-11-27T19:45:43.160Z,1023.4
2022-11-27T19:51:23.399Z,1023.2
2022-11-27T19:56:56.886Z,1023.2
2022-11-27T20:02:16.646Z,1023
2022-11-27T20:08:16.469Z,1023.1
2022-11-27T20:13:29.867Z,1023.1
2022-11-27T20:19:09.553Z,1023
2022-11-27T20:25:11.509Z,1022.9
2022-11-27T20:30:13.417Z,1022.8
2022-11-27T20:35:34.532Z,1022.8
2022-11-27T20:41:23.056Z,1022.7
2022-11-27T20:46:49.340Z,1022.7
2022-11-27T20:52:27.890Z,1022.6
2022-11-27T20:57:44.658Z,1022.6
2022-11-27T21:03:31.260Z,1022.7
2022-11-27T21:08:38.808Z,1022.5
2022-11-27T21:14:30.756Z,1022.5
2022-11-27T21:19:59.681Z,1022.5
2022-11-27T21:25:24.095Z,1022.3
2022-11-27T21:31:01.376Z,1022.3
2022-11-27T21:36:44.938Z,1022.3
2022-11-27T21:42:11.989Z,1022.2
2022-11-27T21:47:22.916Z,1022.2
2022-11-27T21:53:16.837Z,1022.1
2022-11-27T21:58:27.429Z,1021.9
2022-11-27T22:04:20.301Z,1022
2022-11-27T22:09:31.921Z,1021.9
2022-11-27T22:15:06.115Z,1021.9
2022-11-27T22:20:33.887Z,1021.8
2022-11-27T22:26:19.507Z,1021.8
2022-11-27T22:32:01.898Z,1021.8
2022-11-27T22:37:29.665Z,1021.6
2022-11-27T22:42:55.340Z,1021.7
2022-11-27T22:48:21.303Z,1021.7
2022-11-27T22:53:45.122Z,1021.6
2022-11-27T22:59:32.008Z,1021.5
2022-11-27T23:04:52.274Z,1021.5
2022-11-27T23:10:37.810Z,1021.5
2022-11-27T23:16:12.654Z,1021.6
2022-11-27T23:21:32.571Z,1021.4
2022-11-27T23:27:20.376Z,1021.4
2022-11-27T23:32:27.370Z,1021.4
2022-11-27T23:38:13.765Z,1021.4
2022-11-27T23:43:47.090Z,1021.5
2022-11-27T23:49:15.564Z,1021.5
2022-11-27T23:54:51.114Z,1021.5
